createdAt,value
2022-12-19T00:01:16.548Z,2.50
2022-12-19T00:06:18.671Z,2.67
2022-12-19T00:11:21.487Z,1.98
2022-12-19T00:16:24.593Z,2.63
2022-12-19T00:21:27.564Z,1.17
2022-12-19T00:26:31.142Z,3.72
2022-12-19T00:31:34.429Z,3.63
2022-12-19T00:36:35.935Z,3.88
2022-12-19T00:41:40.088Z,2.00
2022-12-19T00:46:45.151Z,3.05
2022-12-19T00:51:56.855Z,2.40
2022-12-19T00:56:58.325Z,0.70
2022-12-19T01:01:59.848Z,3.03
2022-12-19T01:07:02.118Z,10.00
2022-12-19T01:12:24.373Z,1.25
2022-12-19T01:17:26.387Z,7.30
2022-12-19T01:22:27.826Z,1.98
2022-12-19T01:27:29.319Z,5.38
2022-12-19T01:32:30.752Z,1.45
2022-12-19T01:37:32.224Z,1.27
2022-12-19T01:42:35.059Z,1.58
2022-12-19T01:47:43.632Z,1.48
2022-12-19T01:52:47.810Z,3.33
2022-12-19T01:57:49.337Z,4.03
2022-12-19T02:02:56.896Z,2.28
2022-12-19T02:07:58.757Z,2.22
2022-12-19T02:13:00.285Z,6.97
2022-12-19T02:18:11.435Z,2.00
2022-12-19T02:23:12.837Z,6.13
2022-12-19T02:28:18.170Z,0.75
2022-12-19T02:33:34.137Z,2.60
2022-12-19T02:38:38.325Z,3.88
2022-12-19T02:43:42.521Z,1.75
2022-12-19T02:48:44.069Z,2.78
2022-12-19T02:53:45.672Z,2.50
2022-12-19T02:59:02.752Z,2.13
2022-12-19T03:04:19.441Z,1.90
2022-12-19T03:09:26.500Z,1.33
2022-12-19T03:14:28.831Z,4.00
2022-12-19T03:19:30.442Z,1.55
2022-12-19T03:24:31.930Z,1.15
2022-12-19T03:29:41.108Z,1.35
2022-12-19T03:35:01.413Z,1.33
2022-12-19T03:40:05.722Z,7.78
2022-12-19T03:45:08.176Z,1.35
2022-12-19T03:50:10.532Z,2.85
2022-12-19T03:55:12.206Z,2.35
2022-12-19T04:00:15.652Z,4.13
2022-12-19T04:05:21.727Z,2.38
2022-12-19T04:10:24.897Z,1.67
2022-12-19T04:15:41.623Z,3.22
2022-12-19T04:20:45.201Z,1.67
2022-12-19T04:25:49.190Z,1.83
2022-12-19T04:30:51.171Z,5.28
2022-12-19T04:35:52.742Z,3.47
2022-12-19T04:40:54.307Z,5.15
2022-12-19T04:45:57.687Z,5.20
2022-12-19T04:50:59.551Z,9.38
2022-12-19T04:56:01.910Z,3.85
2022-12-19T05:01:04.024Z,5.70
2022-12-19T05:06:09.677Z,5.63
2022-12-19T05:11:15.886Z,4.32
2022-12-19T05:16:20.925Z,7.20
2022-12-19T05:21:22.972Z,8.82
2022-12-19T05:26:24.615Z,7.05
2022-12-19T05:31:26.088Z,5.50
2022-12-19T05:36:32.308Z,6.97
2022-12-19T05:41:34.130Z,6.75
2022-12-19T05:46:36.038Z,6.65
2022-12-19T05:51:37.752Z,7.70
2022-12-19T05:56:39.200Z,9.15
2022-12-19T06:01:40.920Z,8.73
2022-12-19T06:06:42.688Z,7.35
2022-12-19T06:11:44.177Z,7.80
2022-12-19T06:16:45.613Z,8.88
2022-12-19T06:21:48.532Z,5.28
2022-12-19T06:26:50.187Z,10.90
2022-12-19T06:31:51.662Z,9.50
2022-12-19T06:36:53.170Z,5.40
2022-12-19T06:42:13.021Z,10.50
2022-12-19T06:47:14.491Z,11.00
2022-12-19T06:52:17.161Z,12.48
2022-12-19T06:57:18.629Z,13.20
2022-12-19T07:02:26.193Z,7.88
2022-12-19T07:07:28.486Z,11.27
2022-12-19T07:12:29.952Z,10.95
2022-12-19T07:17:31.393Z,11.63
2022-12-19T07:22:34.673Z,7.00
2022-12-19T07:27:36.880Z,9.07
2022-12-19T07:32:39.580Z,8.98
2022-12-19T07:37:41.032Z,7.53
2022-12-19T07:42:42.442Z,9.50
2022-12-19T07:47:43.908Z,5.93
2022-12-19T07:52:45.487Z,10.60
2022-12-19T07:57:46.933Z,6.32
2022-12-19T08:02:48.739Z,6.63
2022-12-19T08:07:50.341Z,12.27
2022-12-19T08:12:52.109Z,6.75
2022-12-19T08:17:54.321Z,3.80
2022-12-19T08:22:55.860Z,2.78
2022-12-19T08:27:57.334Z,5.45
2022-12-19T08:32:58.849Z,6.75
2022-12-19T08:38:00.320Z,5.03
2022-12-19T08:43:01.727Z,5.18
2022-12-19T08:48:03.243Z,4.50
2022-12-19T08:53:04.852Z,3.35
2022-12-19T08:58:06.371Z,5.28
2022-12-19T09:03:09.272Z,4.18
2022-12-19T09:08:12.813Z,6.10
2022-12-19T09:13:14.254Z,3.22
2022-12-19T09:18:15.734Z,3.85
2022-12-19T09:23:17.206Z,8.13
2022-12-19T09:28:27.295Z,6.63
2022-12-19T09:33:30.773Z,8.07
2022-12-19T09:38:33.475Z,3.40
2022-12-19T09:43:41.488Z,5.18
2022-12-19T09:48:46.948Z,8.48
2022-12-19T09:53:55.151Z,7.03
2022-12-19T09:59:00.524Z,11.18
2022-12-19T10:04:05.150Z,12.18
2022-12-19T10:09:56.820Z,11.23
2022-12-19T10:14:52.355Z,7.32
2022-12-19T10:19:56.883Z,12.52
2022-12-19T10:25:10.291Z,12.30
2022-12-19T10:30:16.128Z,10.63
2022-12-19T10:35:19.359Z,11.43
2022-12-19T10:40:28.431Z,10.55
2022-12-19T10:45:37.691Z,10.05
2022-12-19T10:50:39.218Z,13.05
2022-12-19T10:55:45.085Z,17.90
2022-12-19T11:00:56.680Z,12.52
2022-12-19T11:05:58.874Z,10.82
2022-12-19T11:12:44.945Z,15.80
2022-12-19T11:23:32.134Z,14.00
2022-12-19T11:29:33.807Z,9.07
2022-12-19T11:29:37.594Z,9.98
2022-12-19T11:33:12.928Z,8.50
2022-12-19T11:38:16.943Z,19.93
2022-12-19T11:43:46.646Z,11.13
2022-12-19T11:48:52.086Z,15.57
2022-12-19T11:54:07.743Z,10.75
2022-12-19T11:59:18.112Z,10.98
2022-12-19T12:04:38.893Z,9.90
2022-12-19T12:14:20.691Z,16.30
2022-12-19T12:28:50.626Z,11.98
2022-12-19T12:31:31.135Z,13.35
2022-12-19T12:32:03.191Z,10.35
2022-12-19T12:42:35.805Z,10.90
2022-12-19T12:47:37.244Z,10.35
2022-12-19T12:52:38.745Z,11.93
2022-12-19T12:57:40.254Z,13.63
2022-12-19T13:02:42.575Z,11.73
2022-12-19T13:07:50.789Z,13.05
2022-12-19T13:13:25.829Z,18.15
2022-12-19T13:18:32.377Z,16.23
2022-12-19T13:23:34.041Z,13.55
2022-12-19T13:28:39.578Z,13.43
2022-12-19T13:33:47.449Z,16.35
2022-12-19T13:39:52.070Z,16.13
2022-12-19T13:44:12.284Z,12.70
2022-12-19T13:49:17.635Z,12.30
2022-12-19T13:54:20.532Z,12.95
2022-12-19T13:59:24.236Z,16.27
2022-12-19T14:04:27.413Z,15.05
2022-12-19T14:11:31.400Z,11.60
2022-12-19T14:15:14.518Z,16.02
2022-12-19T14:22:11.901Z,14.87
2022-12-19T14:28:23.522Z,12.93
2022-12-19T14:31:08.751Z,17.17
2022-12-19T14:36:16.347Z,14.18
2022-12-19T14:41:46.563Z,13.68
2022-12-19T14:52:51.163Z,15.13
2022-12-19T14:54:23.527Z,17.00
2022-12-19T14:58:55.653Z,18.50
2022-12-19T15:03:33.790Z,16.48
2022-12-19T15:10:09.042Z,16.48
2022-12-19T15:14:56.977Z,16.15
2022-12-19T15:19:19.892Z,20.20
2022-12-19T15:24:21.332Z,15.98
2022-12-19T15:29:22.833Z,20.13
2022-12-19T15:34:36.736Z,14.35
2022-12-19T15:39:43.011Z,15.68
2022-12-19T15:44:45.136Z,17.92
2022-12-19T15:49:47.070Z,20.38
2022-12-19T15:54:50.782Z,18.38
2022-12-19T15:59:52.993Z,14.90
2022-12-19T16:05:01.566Z,13.95
2022-12-19T16:10:05.312Z,13.30
2022-12-19T16:15:11.591Z,16.92
2022-12-19T16:20:21.068Z,17.52
2022-12-19T16:25:23.434Z,17.10
2022-12-19T16:30:32.373Z,20.83
2022-12-19T16:36:02.990Z,16.45
2022-12-19T16:40:57.219Z,14.45
2022-12-19T16:46:01.344Z,23.92
2022-12-19T16:51:03.574Z,20.00
2022-12-19T16:56:05.503Z,16.95
2022-12-19T17:01:09.707Z,16.77
2022-12-19T17:06:18.695Z,14.05
2022-12-19T17:11:21.964Z,19.40
2022-12-19T17:16:23.565Z,21.55
2022-12-19T17:21:25.464Z,16.73
2022-12-19T17:26:27.006Z,20.08
2022-12-19T17:31:29.019Z,19.75
2022-12-19T17:36:37.015Z,19.63
2022-12-19T17:41:39.212Z,20.17
2022-12-19T17:46:40.760Z,31.02
2022-12-19T17:51:43.911Z,17.50
2022-12-19T17:56:45.420Z,21.55
2022-12-19T18:01:47.431Z,25.10
2022-12-19T18:06:49.463Z,25.70
2022-12-19T18:11:51.764Z,20.88
2022-12-19T18:16:53.327Z,19.80
2022-12-19T18:21:54.845Z,22.35
2022-12-19T18:26:56.355Z,18.98
2022-12-19T18:31:58.052Z,18.52
2022-12-19T18:36:59.496Z,21.50
2022-12-19T18:42:01.331Z,16.98
2022-12-19T18:47:02.775Z,19.65
2022-12-19T18:52:04.466Z,19.70
2022-12-19T18:57:05.955Z,23.92
2022-12-19T19:02:18.708Z,19.13
2022-12-19T19:07:20.743Z,19.48
2022-12-19T19:12:22.174Z,26.80
2022-12-19T19:17:26.898Z,24.25
2022-12-19T19:22:28.442Z,21.55
2022-12-19T19:27:29.887Z,24.58
2022-12-19T19:32:32.679Z,19.63
2022-12-19T19:37:34.478Z,22.75
2022-12-19T19:42:36.006Z,18.83
2022-12-19T19:47:37.553Z,26.60
2022-12-19T19:52:40.296Z,17.10
2022-12-19T19:57:41.779Z,18.77
2022-12-19T20:02:43.412Z,18.83
2022-12-19T20:07:45.256Z,18.92
2022-12-19T20:12:46.787Z,16.13
2022-12-19T20:17:48.279Z,16.30
2022-12-19T20:22:49.945Z,18.73
2022-12-19T20:27:51.411Z,15.35
2022-12-19T20:32:52.852Z,17.17
2022-12-19T20:37:54.320Z,20.98
2022-12-19T20:42:55.770Z,15.90
2022-12-19T20:47:57.194Z,14.98
2022-12-19T20:52:58.729Z,14.65
2022-12-19T20:58:06.507Z,17.80
2022-12-19T21:08:30.074Z,16.35
2022-12-19T21:13:31.908Z,12.60
2022-12-19T21:18:33.566Z,14.57
2022-12-19T21:23:35.670Z,11.40
2022-12-19T21:28:38.134Z,19.52
2022-12-19T21:33:39.828Z,13.05
2022-12-19T21:38:41.462Z,11.43
2022-12-19T21:43:43.247Z,16.58
2022-12-19T21:48:46.112Z,14.23
2022-12-19T21:53:47.688Z,12.30
2022-12-19T21:58:50.291Z,12.25
2022-12-19T22:03:52.215Z,11.60
2022-12-19T22:08:53.765Z,12.73
2022-12-19T22:13:55.923Z,8.35
2022-12-19T22:18:57.516Z,10.68
2022-12-19T22:24:02.630Z,9.85
2022-12-19T22:29:06.933Z,10.23
2022-12-19T22:34:12.507Z,13.05
2022-12-19T22:39:15.561Z,9.85
2022-12-19T22:44:26.112Z,10.38
2022-12-19T22:49:27.745Z,7.88
2022-12-19T22:54:29.328Z,11.38
2022-12-19T22:59:30.943Z,6.88
2022-12-19T23:04:32.368Z,8.13
2022-12-19T23:09:33.817Z,6.80
2022-12-19T23:14:35.259Z,8.02
2022-12-19T23:19:36.705Z,11.07
2022-12-19T23:24:38.179Z,7.85
2022-12-19T23:29:39.673Z,11.63
2022-12-19T23:34:41.287Z,7.40
2022-12-19T23:39:42.752Z,11.45
2022-12-19T23:44:44.233Z,9.45
2022-12-19T23:49:45.898Z,9.02
2022-12-19T23:54:47.416Z,10.00
2022-12-19T23:59:48.837Z,14.57
